createdAt,value
2022-11-29T00:01:41.594Z,100437.69
2022-11-29T00:04:09.773Z,100440.95
2022-11-29T00:06:38.573Z,100442.81
2022-11-29T00:09:11.745Z,100439.90
2022-11-29T00:12:00.852Z,100440.87
2022-11-29T00:14:29.907Z,100438.73
2022-11-29T00:17:04.768Z,100438.06
2022-11-29T00:19:35.921Z,100438.44
2022-11-29T00:22:04.984Z,100441.60
2022-11-29T00:24:33.364Z,100441.60
2022-11-29T00:27:01.743Z,100440.17
2022-11-29T00:29:30.729Z,100432.93
2022-11-29T00:31:59.723Z,100438.93
2022-11-29T00:34:28.309Z,100438.28
2022-11-29T00:36:56.786Z,100442.75
2022-11-29T00:39:25.057Z,100439.01
2022-11-29T00:41:53.346Z,100437.56
2022-11-29T00:44:21.820Z,100436.14
2022-11-29T00:46:50.013Z,100440.28
2022-11-29T00:49:18.474Z,100440.36
2022-11-29T00:51:47.457Z,100439.98
2022-11-29T00:54:17.382Z,100432.74
2022-11-29T00:56:45.670Z,100434.91
2022-11-29T00:59:13.821Z,100437.12
2022-11-29T01:01:42.872Z,100436.93
2022-11-29T01:04:11.160Z,100433.94
2022-11-29T01:06:39.382Z,100434.48
2022-11-29T01:09:07.659Z,100432.94
2022-11-29T01:11:36.348Z,100432.80
2022-11-29T01:14:05.126Z,100435.95
2022-11-29T01:16:33.999Z,100433.48
2022-11-29T01:19:02.819Z,100437.40
2022-11-29T01:21:31.613Z,100438.95
2022-11-29T01:24:00.393Z,100438.66
2022-11-29T01:26:30.518Z,100437.59
2022-11-29T01:28:59.654Z,100435.75
2022-11-29T01:31:36.515Z,100434.50
2022-11-29T01:34:06.243Z,100433.45
2022-11-29T01:36:35.493Z,100431.48
2022-11-29T01:39:05.883Z,100429.92
2022-11-29T01:41:36.490Z,100434.83
2022-11-29T01:44:13.851Z,100423.45
2022-11-29T01:46:45.122Z,100437.77
2022-11-29T01:49:17.699Z,100424.23
2022-11-29T01:51:51.129Z,100437.27
2022-11-29T01:54:20.362Z,100436.83
2022-11-29T01:56:50.653Z,100433.86
2022-11-29T01:59:25.146Z,100441.77
2022-11-29T02:01:58.400Z,100437.20
2022-11-29T02:04:27.427Z,100435.21
2022-11-29T02:06:55.706Z,100434.54
2022-11-29T02:09:24.022Z,100436.89
2022-11-29T02:11:55.338Z,100436.62
2022-11-29T02:14:30.774Z,100437.36
2022-11-29T02:17:37.740Z,100438.67
2022-11-29T02:20:44.134Z,100438.52
2022-11-29T02:23:22.810Z,100436.77
2022-11-29T02:26:03.850Z,100442.27
2022-11-29T02:28:50.210Z,100439.57
2022-11-29T02:31:37.158Z,100439.67
2022-11-29T02:34:08.587Z,100443.79
2022-11-29T02:36:50.379Z,100444.34
2022-11-29T02:39:37.490Z,100438.67
2022-11-29T02:42:30.121Z,100440.84
2022-11-29T02:45:10.373Z,100442.48
2022-11-29T02:47:50.659Z,100445.57
2022-11-29T02:50:23.801Z,100445.23
2022-11-29T02:53:06.476Z,100449.30
2022-11-29T02:55:44.990Z,100453.42
2022-11-29T02:58:34.369Z,100455.74
2022-11-29T03:01:24.800Z,100454.84
2022-11-29T03:04:08.852Z,100454.34
2022-11-29T03:06:46.905Z,100458.30
2022-11-29T03:09:45.425Z,100458.52
2022-11-29T03:12:26.973Z,100458.39
2022-11-29T03:15:15.743Z,100461.98
2022-11-29T03:18:01.378Z,100463.21
2022-11-29T03:20:47.814Z,100464.48
2022-11-29T03:23:23.984Z,100462.25
2022-11-29T03:26:04.035Z,100463.50
2022-11-29T03:29:07.476Z,100465.40
2022-11-29T03:32:01.620Z,100473.06
2022-11-29T03:34:55.790Z,100478.28
2022-11-29T03:37:29.932Z,100478.13
2022-11-29T03:40:14.677Z,100477.39
2022-11-29T03:42:55.350Z,100475.54
2022-11-29T03:45:38.898Z,100474.64
2022-11-29T03:48:25.371Z,100473.52
2022-11-29T03:51:16.699Z,100473.77
2022-11-29T03:54:10.580Z,100471.06
2022-11-29T03:56:43.834Z,100477.33
2022-11-29T03:59:24.528Z,100478.00
2022-11-29T04:02:11.293Z,100459.20
2022-11-29T04:04:55.192Z,100467.75
2022-11-29T04:07:35.578Z,100478.29
2022-11-29T04:10:27.471Z,100476.77
2022-11-29T04:12:58.542Z,100476.13
2022-11-29T04:16:05.421Z,100473.34
2022-11-29T04:18:52.402Z,100480.93
2022-11-29T04:21:31.018Z,100484.05
2022-11-29T04:24:27.421Z,100489.17
2022-11-29T04:27:23.934Z,100494.88
2022-11-29T04:30:14.724Z,100494.33
2022-11-29T04:33:16.466Z,100496.42
2022-11-29T04:35:50.785Z,100499.68
2022-11-29T04:38:48.261Z,100502.20
2022-11-29T04:41:46.122Z,100498.75
2022-11-29T04:44:37.748Z,100504.61
2022-11-29T04:47:33.905Z,100503.21
2022-11-29T04:50:21.307Z,100506.55
2022-11-29T04:53:21.010Z,100507.27
2022-11-29T04:56:09.463Z,100511.65
2022-11-29T04:58:53.509Z,100509.73
2022-11-29T05:01:43.262Z,100508.89
2022-11-29T05:04:25.276Z,100509.66
2022-11-29T05:07:04.209Z,100502.08
2022-11-29T05:09:32.438Z,100513.87
2022-11-29T05:12:10.703Z,100515.23
2022-11-29T05:14:42.458Z,100513.94
2022-11-29T05:17:48.658Z,100513.23
2022-11-29T05:20:43.017Z,100521.13
2022-11-29T05:23:37.746Z,100524.27
2022-11-29T05:26:27.385Z,100522.23
2022-11-29T05:29:11.434Z,100523.02
2022-11-29T05:31:56.656Z,100526.05
2022-11-29T05:34:55.396Z,100526.76
2022-11-29T05:37:57.666Z,100524.04
2022-11-29T05:40:49.704Z,100529.98
2022-11-29T05:43:55.565Z,100534.21
2022-11-29T05:46:34.215Z,100539.44
2022-11-29T05:49:21.197Z,100536.14
2022-11-29T05:52:06.164Z,100539.12
2022-11-29T05:54:42.443Z,100543.05
2022-11-29T05:57:19.705Z,100544.50
2022-11-29T05:59:51.619Z,100548.33
2022-11-29T06:02:29.642Z,100547.89
2022-11-29T06:05:32.877Z,100552.31
2022-11-29T06:08:19.283Z,100552.85
2022-11-29T06:11:14.282Z,100553.42
2022-11-29T06:13:55.568Z,100555.83
2022-11-29T06:16:44.553Z,100556.27
2022-11-29T06:19:22.281Z,100552.15
2022-11-29T06:22:24.504Z,100563.89
2022-11-29T06:25:08.438Z,100566.17
2022-11-29T06:28:07.334Z,100569.00
2022-11-29T06:31:12.549Z,100569.54
2022-11-29T06:34:02.717Z,100571.30
2022-11-29T06:36:43.003Z,100572.40
2022-11-29T06:39:11.856Z,100577.58
2022-11-29T06:41:40.411Z,100578.28
2022-11-29T06:44:10.576Z,100574.40
2022-11-29T06:46:49.719Z,100579.34
2022-11-29T06:49:39.360Z,100579.90
2022-11-29T06:52:37.319Z,100582.58
2022-11-29T06:55:32.550Z,100583.08
2022-11-29T06:58:03.995Z,100588.92
2022-11-29T07:01:05.148Z,100593.20
2022-11-29T07:03:55.015Z,100591.27
2022-11-29T07:06:28.957Z,100594.38
2022-11-29T07:09:14.194Z,100596.29
2022-11-29T07:11:43.494Z,100590.55
2022-11-29T07:14:12.483Z,100592.45
2022-11-29T07:17:03.635Z,100593.96
2022-11-29T07:19:32.421Z,100594.93
2022-11-29T07:22:26.985Z,100594.81
2022-11-29T07:25:20.468Z,100593.73
2022-11-29T07:28:33.294Z,100595.42
2022-11-29T07:31:02.675Z,100594.89
2022-11-29T07:33:43.166Z,100594.36
2022-11-29T07:36:18.803Z,100600.45
2022-11-29T07:38:56.130Z,100600.70
2022-11-29T07:41:38.731Z,100605.64
2022-11-29T07:44:16.096Z,100600.33
2022-11-29T07:46:44.845Z,100606.45
2022-11-29T07:49:13.580Z,100608.54
2022-11-29T07:51:42.212Z,100607.11
2022-11-29T07:54:15.853Z,100608.85
2022-11-29T07:56:44.135Z,100612.87
2022-11-29T07:59:13.288Z,100614.89
2022-11-29T08:01:42.168Z,100622.45
2022-11-29T08:04:10.589Z,100618.20
2022-11-29T08:06:39.360Z,100618.48
2022-11-29T08:09:07.861Z,100619.92
2022-11-29T08:11:36.341Z,100620.29
2022-11-29T08:14:06.998Z,100626.66
2022-11-29T08:16:36.213Z,100625.80
2022-11-29T08:19:05.381Z,100628.76
2022-11-29T08:21:33.856Z,100628.90
2022-11-29T08:24:02.244Z,100628.14
2022-11-29T08:26:31.778Z,100633.73
2022-11-29T08:29:00.330Z,100635.07
2022-11-29T08:31:28.750Z,100633.89
2022-11-29T08:33:56.988Z,100632.77
2022-11-29T08:36:25.669Z,100635.28
2022-11-29T08:39:02.249Z,100634.88
2022-11-29T08:41:34.566Z,100630.95
2022-11-29T08:44:04.749Z,100633.56
2022-11-29T08:46:51.954Z,100631.89
2022-11-29T08:49:20.224Z,100635.89
2022-11-29T08:51:48.403Z,100641.54
2022-11-29T08:54:16.689Z,100641.66
2022-11-29T08:57:37.277Z,100640.80
2022-11-29T08:59:34.385Z,100645.21
2022-11-29T09:02:03.062Z,100643.90
2022-11-29T09:04:31.589Z,100648.52
2022-11-29T09:06:59.967Z,100648.91
2022-11-29T09:09:28.234Z,100649.96
2022-11-29T09:11:56.727Z,100652.06
2022-11-29T09:14:26.081Z,100654.00
2022-11-29T09:16:54.626Z,100655.04
2022-11-29T09:19:23.111Z,100659.71
2022-11-29T09:21:51.645Z,100654.83
2022-11-29T09:24:20.955Z,100659.61
2022-11-29T09:26:49.562Z,100657.84
2022-11-29T09:29:18.136Z,100659.32
2022-11-29T09:31:46.643Z,100661.64
2022-11-29T09:34:16.926Z,100656.73
2022-11-29T09:36:45.625Z,100652.27
2022-11-29T09:39:14.309Z,100655.06
2022-11-29T09:41:51.902Z,100656.38
2022-11-29T09:44:32.588Z,100654.88
2022-11-29T09:47:12.525Z,100654.20
2022-11-29T09:49:46.851Z,100651.09
2022-11-29T09:52:25.666Z,100653.64
2022-11-29T09:55:02.815Z,100657.54
2022-11-29T09:57:32.772Z,100656.77
2022-11-29T10:00:16.712Z,100660.94
2022-11-29T10:02:50.807Z,100660.08
2022-11-29T10:05:34.069Z,100658.06
2022-11-29T10:08:15.461Z,100658.47
2022-11-29T10:10:48.273Z,100656.56
2022-11-29T10:13:29.923Z,100654.20
2022-11-29T10:16:11.154Z,100653.29
2022-11-29T10:18:56.283Z,100654.66
2022-11-29T10:21:32.123Z,100658.86
2022-11-29T10:24:23.350Z,100661.27
2022-11-29T10:26:51.835Z,100657.82
2022-11-29T10:29:20.330Z,100657.61
2022-11-29T10:31:49.772Z,100660.67
2022-11-29T10:34:24.355Z,100661.14
2022-11-29T10:37:03.131Z,100658.16
2022-11-29T10:40:04.603Z,100660.45
2022-11-29T10:43:03.147Z,100658.73
2022-11-29T10:45:35.457Z,100657.82
2022-11-29T10:48:12.269Z,100654.05
2022-11-29T10:50:44.338Z,100655.15
2022-11-29T10:53:18.533Z,100653.92
2022-11-29T10:55:51.934Z,100651.52
2022-11-29T10:58:28.348Z,100650.91
2022-11-29T11:01:01.206Z,100651.94
2022-11-29T11:03:36.820Z,100648.71
2022-11-29T11:06:17.392Z,100648.90
2022-11-29T11:08:53.654Z,100648.89
2022-11-29T11:11:32.893Z,100654.25
2022-11-29T11:14:17.329Z,100652.95
2022-11-29T11:16:45.745Z,100651.70
2022-11-29T11:19:33.874Z,100646.20
2022-11-29T11:22:04.594Z,100652.38
2022-11-29T11:24:38.928Z,100649.16
2022-11-29T11:27:07.944Z,100646.70
2022-11-29T11:29:36.934Z,100652.16
2022-11-29T11:32:15.769Z,100652.76
2022-11-29T11:34:57.836Z,100651.77
2022-11-29T11:37:34.253Z,100653.91
2022-11-29T11:40:29.376Z,100651.70
2022-11-29T11:43:02.171Z,100650.28
2022-11-29T11:45:35.493Z,100647.82
2022-11-29T11:48:17.196Z,100649.72
2022-11-29T11:50:53.023Z,100652.64
2022-11-29T11:53:24.484Z,100653.69
2022-11-29T11:56:00.722Z,100657.27
2022-11-29T11:58:32.918Z,100656.59
2022-11-29T12:01:37.778Z,100657.45
2022-11-29T12:04:27.663Z,100667.05
2022-11-29T12:07:13.878Z,100672.81
2022-11-29T12:09:49.882Z,100671.58
2022-11-29T12:12:33.358Z,100671.21
2022-11-29T12:15:18.874Z,100673.77
2022-11-29T12:18:06.176Z,100675.23
2022-11-29T12:20:58.651Z,100676.75
2022-11-29T12:24:01.077Z,100677.89
2022-11-29T12:26:58.614Z,100677.19
2022-11-29T12:29:32.880Z,100675.09
2022-11-29T12:32:19.531Z,100673.14
2022-11-29T12:34:51.601Z,100676.14
2022-11-29T12:37:48.931Z,100673.20
2022-11-29T12:40:37.192Z,100675.33
2022-11-29T12:43:18.882Z,100673.39
2022-11-29T12:46:15.431Z,100674.95
2022-11-29T12:49:10.958Z,100676.17
2022-11-29T12:52:00.804Z,100678.30
2022-11-29T12:54:38.865Z,100680.90
2022-11-29T12:57:28.760Z,100685.58
2022-11-29T13:00:17.557Z,100683.35
2022-11-29T13:03:11.803Z,100689.59
2022-11-29T13:06:12.377Z,100689.52
2022-11-29T13:08:44.522Z,100691.66
2022-11-29T13:11:28.354Z,100693.41
2022-11-29T13:14:34.645Z,100695.23
2022-11-29T13:17:03.714Z,100699.01
2022-11-29T13:19:42.942Z,100697.05
2022-11-29T13:22:19.603Z,100698.72
2022-11-29T13:24:57.794Z,100696.44
2022-11-29T13:27:37.561Z,100696.14
2022-11-29T13:30:07.415Z,100700.73
2022-11-29T13:33:15.065Z,100698.78
2022-11-29T13:35:54.463Z,100704.70
2022-11-29T13:38:44.053Z,100706.30
2022-11-29T13:41:32.292Z,100707.89
2022-11-29T13:44:17.013Z,100710.36
2022-11-29T13:47:07.451Z,100717.17
2022-11-29T13:50:04.181Z,100709.58
2022-11-29T13:52:48.312Z,100719.06
2022-11-29T13:55:29.771Z,100720.69
2022-11-29T13:58:18.065Z,100721.33
2022-11-29T14:00:47.952Z,100729.04
2022-11-29T14:03:38.832Z,100732.63
2022-11-29T14:06:37.022Z,100734.64
2022-11-29T14:09:19.417Z,100734.00
2022-11-29T14:12:01.932Z,100736.30
2022-11-29T14:14:50.542Z,100739.23
2022-11-29T14:17:55.820Z,100743.68
2022-11-29T14:20:31.269Z,100743.36
2022-11-29T14:23:05.990Z,100741.37
2022-11-29T14:25:56.221Z,100745.65
2022-11-29T14:28:34.688Z,100749.40
2022-11-29T14:31:05.736Z,100748.80
2022-11-29T14:33:52.345Z,100747.88
2022-11-29T14:36:30.356Z,100753.38
2022-11-29T14:39:04.890Z,100754.48
2022-11-29T14:41:54.057Z,100755.23
2022-11-29T14:44:32.166Z,100757.14
2022-11-29T14:47:51.033Z,100761.15
2022-11-29T14:50:37.519Z,100761.52
2022-11-29T14:53:27.718Z,100756.69
2022-11-29T14:56:31.940Z,100762.27
2022-11-29T14:59:38.799Z,100764.36
2022-11-29T15:02:32.788Z,100766.48
2022-11-29T15:05:46.851Z,100764.17
2022-11-29T15:08:52.833Z,100766.70
2022-11-29T15:11:36.938Z,100770.39
2022-11-29T15:14:12.889Z,100772.83
2022-11-29T15:16:45.067Z,100778.27
2022-11-29T15:19:31.907Z,100778.95
2022-11-29T15:22:43.985Z,100781.06
2022-11-29T15:25:17.672Z,100783.48
2022-11-29T15:27:54.940Z,100781.53
2022-11-29T15:30:33.896Z,100785.52
2022-11-29T15:33:09.333Z,100786.26
2022-11-29T15:35:38.317Z,100784.64
2022-11-29T15:38:07.069Z,100785.22
2022-11-29T15:40:37.698Z,100789.73
2022-11-29T15:43:06.812Z,100791.36
2022-11-29T15:45:38.255Z,100793.30
2022-11-29T15:48:16.347Z,100792.53
2022-11-29T15:51:07.933Z,100795.09
2022-11-29T15:53:41.536Z,100801.02
2022-11-29T15:56:22.284Z,100800.64
2022-11-29T15:58:58.085Z,100804.14
2022-11-29T16:01:29.881Z,100805.31
2022-11-29T16:04:01.958Z,100803.91
2022-11-29T16:06:45.057Z,100805.39
2022-11-29T16:09:24.043Z,100803.89
2022-11-29T16:11:53.649Z,100808.19
2022-11-29T16:14:26.763Z,100807.77
2022-11-29T16:17:01.131Z,100805.61
2022-11-29T16:19:33.100Z,100804.36
2022-11-29T16:22:11.103Z,100805.30
2022-11-29T16:24:48.485Z,100808.48
2022-11-29T16:27:20.443Z,100810.55
2022-11-29T16:29:53.278Z,100811.24
2022-11-29T16:32:30.125Z,100811.59
2022-11-29T16:35:34.947Z,100813.23
2022-11-29T16:38:05.778Z,100816.34
2022-11-29T16:40:36.978Z,100816.50
2022-11-29T16:43:43.351Z,100806.02
2022-11-29T16:46:23.517Z,100819.36
2022-11-29T16:48:56.543Z,100824.43
2022-11-29T16:51:32.782Z,100824.73
2022-11-29T16:54:29.393Z,100829.78
2022-11-29T16:57:00.328Z,100832.96
2022-11-29T16:59:30.473Z,100829.77
2022-11-29T17:01:59.739Z,100835.11
2022-11-29T17:04:29.889Z,100837.81
2022-11-29T17:07:00.503Z,100835.81
2022-11-29T17:09:35.628Z,100837.65
2022-11-29T17:12:07.649Z,100842.00
2022-11-29T17:14:37.564Z,100845.65
2022-11-29T17:17:08.739Z,100843.22
2022-11-29T17:19:39.488Z,100846.75
2022-11-29T17:22:10.985Z,100847.30
2022-11-29T17:24:47.732Z,100847.25
2022-11-29T17:27:20.310Z,100846.16
2022-11-29T17:29:52.757Z,100844.98
2022-11-29T17:32:26.694Z,100844.24
2022-11-29T17:34:57.115Z,100846.41
2022-11-29T17:37:26.857Z,100851.30
2022-11-29T17:39:57.594Z,100854.30
2022-11-29T17:42:28.624Z,100858.70
2022-11-29T17:44:58.320Z,100861.60
2022-11-29T17:47:28.289Z,100866.80
2022-11-29T17:49:59.277Z,100865.11
2022-11-29T17:52:28.934Z,100847.40
2022-11-29T17:54:58.450Z,100869.86
2022-11-29T17:57:27.413Z,100865.85
2022-11-29T17:59:56.188Z,100867.29
2022-11-29T18:02:25.154Z,100870.42
2022-11-29T18:04:53.870Z,100871.41
2022-11-29T18:07:22.338Z,100873.55
2022-11-29T18:09:51.237Z,100872.60
2022-11-29T18:12:20.436Z,100877.36
2022-11-29T18:14:52.405Z,100877.37
2022-11-29T18:17:24.423Z,100879.10
2022-11-29T18:19:56.417Z,100882.48
2022-11-29T18:22:27.876Z,100878.92
2022-11-29T18:25:10.008Z,100881.73
2022-11-29T18:27:46.355Z,100885.70
2022-11-29T18:30:17.495Z,100888.17
2022-11-29T18:32:46.394Z,100890.81
2022-11-29T18:35:15.953Z,100890.83
2022-11-29T18:38:13.627Z,100891.94
2022-11-29T18:40:35.001Z,100893.38
2022-11-29T18:43:05.165Z,100893.04
2022-11-29T18:45:38.184Z,100890.26
2022-11-29T18:48:08.235Z,100893.79
2022-11-29T18:50:49.310Z,100896.20
2022-11-29T18:53:18.799Z,100895.41
2022-11-29T18:55:49.283Z,100900.29
2022-11-29T18:58:18.651Z,100905.01
2022-11-29T19:00:48.424Z,100904.27
2022-11-29T19:03:18.707Z,100908.40
2022-11-29T19:05:54.824Z,100913.45
2022-11-29T19:08:24.655Z,100912.27
2022-11-29T19:10:54.086Z,100912.48
2022-11-29T19:13:23.402Z,100916.48
2022-11-29T19:15:56.303Z,100919.86
2022-11-29T19:18:26.117Z,100920.10
2022-11-29T19:21:15.006Z,100920.54
2022-11-29T19:23:46.885Z,100923.77
2022-11-29T19:26:16.908Z,100927.39
2022-11-29T19:28:47.632Z,100927.11
2022-11-29T19:31:19.261Z,100928.05
2022-11-29T19:33:49.089Z,100932.83
2022-11-29T19:36:30.375Z,100931.97
2022-11-29T19:39:04.319Z,100936.05
2022-11-29T19:41:35.375Z,100931.52
2022-11-29T19:44:08.816Z,100933.17
2022-11-29T19:46:41.987Z,100932.17
2022-11-29T19:49:11.552Z,100935.04
2022-11-29T19:51:41.932Z,100939.44
2022-11-29T19:54:12.278Z,100946.00
2022-11-29T19:56:41.919Z,100946.33
2022-11-29T19:59:11.431Z,100947.27
2022-11-29T20:01:42.275Z,100948.52
2022-11-29T20:04:14.435Z,100947.97
2022-11-29T20:06:45.104Z,100946.86
2022-11-29T20:09:14.297Z,100942.91
2022-11-29T20:11:44.615Z,100927.67
2022-11-29T20:14:14.895Z,100944.46
2022-11-29T20:16:45.107Z,100946.75
2022-11-29T20:19:17.337Z,100947.61
2022-11-29T20:21:49.352Z,100943.06
2022-11-29T20:24:19.732Z,100951.77
2022-11-29T20:26:50.401Z,100953.16
2022-11-29T20:29:20.374Z,100932.48
2022-11-29T20:31:51.102Z,100957.54
2022-11-29T20:34:20.517Z,100956.03
2022-11-29T20:36:49.839Z,100952.49
2022-11-29T20:39:50.138Z,100955.42
2022-11-29T20:42:38.239Z,100952.73
2022-11-29T20:45:11.290Z,100955.91
2022-11-29T20:47:52.553Z,100959.02
2022-11-29T20:50:29.972Z,100960.39
2022-11-29T20:53:30.755Z,100963.24
2022-11-29T20:56:05.697Z,100968.08
2022-11-29T20:58:35.297Z,100967.27
2022-11-29T21:01:05.233Z,100967.65
2022-11-29T21:03:33.723Z,100961.41
2022-11-29T21:06:04.642Z,100969.55
2022-11-29T21:08:33.940Z,100972.44
2022-11-29T21:11:09.637Z,100973.70
2022-11-29T21:13:39.501Z,100972.52
2022-11-29T21:16:11.982Z,100964.36
2022-11-29T21:18:41.470Z,100970.94
2022-11-29T21:21:26.395Z,100975.55
2022-11-29T21:24:09.732Z,100978.77
2022-11-29T21:26:44.720Z,100979.21
2022-11-29T21:29:18.798Z,100980.98
2022-11-29T21:31:53.546Z,100985.48
2022-11-29T21:34:22.809Z,100986.10
2022-11-29T21:37:00.004Z,100990.52
2022-11-29T21:39:38.213Z,100999.02
2022-11-29T21:42:06.843Z,100997.14
2022-11-29T21:44:35.537Z,100998.64
2022-11-29T21:47:04.417Z,101004.37
2022-11-29T21:49:32.990Z,101004.80
2022-11-29T21:52:02.536Z,100988.10
2022-11-29T21:54:33.380Z,101000.00
2022-11-29T21:57:03.407Z,101008.33
2022-11-29T21:59:32.826Z,101003.09
2022-11-29T22:02:03.370Z,101006.39
2022-11-29T22:04:32.577Z,101006.27
2022-11-29T22:07:01.149Z,101001.58
2022-11-29T22:09:30.965Z,101001.17
2022-11-29T22:12:00.053Z,100999.71
2022-11-29T22:14:28.560Z,100993.27
2022-11-29T22:17:00.199Z,100997.04
2022-11-29T22:19:31.757Z,101002.39
2022-11-29T22:22:03.292Z,101000.54
2022-11-29T22:24:35.267Z,101002.78
2022-11-29T22:27:03.947Z,101004.05
2022-11-29T22:29:32.434Z,101007.81
2022-11-29T22:32:01.534Z,101005.98
2022-11-29T22:34:29.869Z,101009.70
2022-11-29T22:36:58.485Z,101011.73
2022-11-29T22:39:28.526Z,101008.43
2022-11-29T22:41:58.322Z,101010.14
2022-11-29T22:44:27.121Z,101009.33
2022-11-29T22:46:55.886Z,101011.65
2022-11-29T22:49:24.994Z,101015.18
2022-11-29T22:51:53.807Z,101014.92
2022-11-29T22:54:22.261Z,101012.69
2022-11-29T22:56:50.744Z,101012.80
2022-11-29T22:59:19.122Z,101012.52
2022-11-29T23:01:47.544Z,101012.88
2022-11-29T23:04:16.094Z,101014.96
2022-11-29T23:06:45.909Z,101014.16
2022-11-29T23:09:17.136Z,101015.14
2022-11-29T23:11:46.745Z,101018.43
2022-11-29T23:14:14.915Z,101012.35
2022-11-29T23:16:43.328Z,101014.63
2022-11-29T23:19:12.505Z,101000.71
2022-11-29T23:21:42.002Z,101013.56
2022-11-29T23:24:10.412Z,101014.50
2022-11-29T23:26:41.845Z,101019.77
2022-11-29T23:29:13.598Z,101017.14
2022-11-29T23:31:42.252Z,101017.30
2022-11-29T23:34:10.853Z,101013.21
2022-11-29T23:36:39.358Z,101007.95
2022-11-29T23:39:07.734Z,101009.20
2022-11-29T23:41:37.231Z,101012.06
2022-11-29T23:44:06.587Z,101016.50
2022-11-29T23:46:35.423Z,101006.80
2022-11-29T23:49:04.321Z,101014.70
2022-11-29T23:51:32.489Z,101014.73
2022-11-29T23:54:00.769Z,101014.80
2022-11-29T23:56:29.047Z,101012.27
2022-11-29T23:58:58.240Z,101015.64
